To NAV CANADA Home Page Login to a new session Search on AWWS site Feedback and Comments Disclaimer Vers la page française équivalente Tips FAQ What's new on the site To the Forecasts and Observations / NOTAM section To "File a Flight Plan" website Publications and other links Update of the User's profile FIC Telephone Numbers My Weather Data Folder Route Weather Data Regional Weather Data Local Weather Data To the Forecasts and Observations / NOTAM section
Request Generated 02/23/2017 at 20:47:25 UTC . Weather information available at that time is displayed.

METAR/TAF

If you find any discrepancies between the coded METAR/TAF and the plain language METAR/TAF please use the coded METAR/TAF. LWIS bulletins are not decoded in plain language.

TORONTO/LESTER B. PEARSON INTL/ON    

METAR CYYZ 232000Z 30021KT 15SM FEW035 15/07 A2969 RMK CU1 SLP057 DENSITY ALT 900FT=
METAR
LOCATION
CYYZ - TORONTO/LESTER B. PEARSON INTL/ON
DATE - TIME
23 FEBRUARY 2017 - 2000 UTC
WIND
300 TRUE @ 21  KNOTS
VISIBILITY
15 STAT.  MILES
RUNWAY VISUAL RANGE
WEATHER
CLOUDINESS
FEW CLOUDS (1/8 - 2/8) 3500  FT
TEMP / DEWPOINT
15 C / 7 C
ALTIMETER
29.69 IN HG
RECENT WEATHER
WIND SHEAR

METAR CYYZ 231900Z 28021G26KT 15SM FEW043 17/07 A2964 RMK CU1 SLP041 DENSITY ALT 1200FT=
METAR
LOCATION
CYYZ - TORONTO/LESTER B. PEARSON INTL/ON
DATE - TIME
23 FEBRUARY 2017 - 1900 UTC
WIND
280 TRUE @ 21  KNOTS
GUSTS
26 KNOTS
VISIBILITY
15 STAT.  MILES
RUNWAY VISUAL RANGE
WEATHER
CLOUDINESS
FEW CLOUDS (1/8 - 2/8) 4300  FT
TEMP / DEWPOINT
17 C / 7 C
ALTIMETER
29.64 IN HG
RECENT WEATHER
WIND SHEAR

METAR CYYZ 231800Z 28020G27KT 15SM FEW038 17/09 A2961 RMK CU2 SLP032 DENSITY ALT 1300FT=
METAR
LOCATION
CYYZ - TORONTO/LESTER B. PEARSON INTL/ON
DATE - TIME
23 FEBRUARY 2017 - 1800 UTC
WIND
280 TRUE @ 20  KNOTS
GUSTS
27 KNOTS
VISIBILITY
15 STAT.  MILES
RUNWAY VISUAL RANGE
WEATHER
CLOUDINESS
FEW CLOUDS (1/8 - 2/8) 3800  FT
TEMP / DEWPOINT
17 C / 9 C
ALTIMETER
29.61 IN HG
RECENT WEATHER
WIND SHEAR

TAF CYYZ 232043Z 2321/2424 30015G25KT P6SM FEW030 BECMG 2321/2322 30015KT BECMG 2323/2401 01007KT FM240500 01010KT P6SM SCT007 BKN100 TEMPO 2405/2407 3SM BR BKN007 OVC100 FM240700 04008KT 2SM -SHRA BR BKN005 OVC020 TEMPO 2407/2415 6SM -SHRA BR SCT005 OVC020 PROB30 2409/2415 1SM -SHRA BR OVC003 FM241500 09010KT 1SM -DZ BR OVC003 FM242300 09010KT WS010/18030KT 3/4SM BR VV002 RMK NXT FCST BY 240000Z=
TAF
LOCATION

CYYZ - TORONTO/LESTER B. PEARSON INTL/ON
VALIDITY [UTC]
23 FEB - 2043 to
25 FEB - 0000
 
TIMES
[UTC]
WIND
[DEGREES TRUE]
VISIBILITY
[STAT. MILES]
WEATHER
CLOUDINESS
[FEET AGL]
 
23 FEB - 2100 to
24 FEB - 0500
300 @ 15 KNOTS
GUSTS 25 KNOTS
6+
NIL
3000 FEW
BECOMING
23 FEB - 2100 to
23 FEB - 2200
300 @ 15 KNOTS
 
 
 
BECOMING
23 FEB - 2300 to
24 FEB - 0100
10 @ 7 KNOTS
 
 
 
 
24 FEB - 0500 to
24 FEB - 0700
10 @ 10 KNOTS
6+
NIL
700 SCATTERED
10000 BROKEN
TEMPORARY CHANGES
24 FEB - 0500 to
24 FEB - 0700
 
3
MIST
700 BROKEN
10000 OVERCAST
 
24 FEB - 0700 to
24 FEB - 1500
40 @ 8 KNOTS
2
LIGHT RAIN SHOWER
MIST
500 BROKEN
2000 OVERCAST
TEMPORARY CHANGES
24 FEB - 0700 to
24 FEB - 1500
 
6
LIGHT RAIN SHOWER
MIST
500 SCATTERED
2000 OVERCAST
30% PROBABILITY
24 FEB - 0900 to
24 FEB - 1500
 
1
LIGHT RAIN SHOWER
MIST
300 OVERCAST
 
24 FEB - 1500 to
24 FEB - 2300
90 @ 10 KNOTS
1
LIGHT DRIZZLE
MIST
300 OVERCAST
 
24 FEB - 2300 to
25 FEB - 0000
90 @ 10 KNOTS
WIND SHEAR: WINDS AT 1000 FEET 180 @ 30 KNOTS
3/4
MIST
VERTICAL VISIBILITY 200
REMARKS
THE NEXT FORECAST WILL BE ISSUED BY 0000 UTC ON DAY 24


Your time UTC time
Weather data provided by Environment Canada and NAV CANADA